createdAt,value
2022-12-23T00:02:22.263Z,100.00
2022-12-23T00:04:48.713Z,100.00
2022-12-23T00:07:15.080Z,100.00
2022-12-23T00:09:41.447Z,100.00
2022-12-23T00:12:26.433Z,100.00
2022-12-23T00:15:07.648Z,100.00
2022-12-23T00:17:35.860Z,100.00
2022-12-23T00:20:03.227Z,100.00
2022-12-23T00:22:48.181Z,100.00
2022-12-23T00:25:14.730Z,100.00
2022-12-23T00:27:41.243Z,100.00
2022-12-23T00:30:09.682Z,100.00
2022-12-23T00:32:36.339Z,100.00
2022-12-23T00:35:02.764Z,100.00
2022-12-23T00:37:31.144Z,100.00
2022-12-23T00:40:16.021Z,100.00
2022-12-23T00:42:54.568Z,100.00
2022-12-23T00:45:20.999Z,100.00
2022-12-23T00:48:06.532Z,100.00
2022-12-23T00:50:36.046Z,100.00
2022-12-23T00:53:02.548Z,100.00
2022-12-23T00:55:28.968Z,100.00
2022-12-23T00:57:55.362Z,100.00
2022-12-23T01:00:42.389Z,100.00
2022-12-23T01:03:42.623Z,100.00
2022-12-23T01:06:09.077Z,100.00
2022-12-23T01:08:35.453Z,100.00
2022-12-23T01:11:03.931Z,100.00
2022-12-23T01:13:30.375Z,100.00
2022-12-23T01:16:05.260Z,100.00
2022-12-23T01:18:31.706Z,100.00
2022-12-23T01:21:05.008Z,100.00
2022-12-23T01:23:31.853Z,100.00
2022-12-23T01:29:18.547Z,100.00
2022-12-23T01:31:44.975Z,100.00
2022-12-23T01:34:11.492Z,100.00
2022-12-23T01:36:37.970Z,100.00
2022-12-23T01:39:04.719Z,100.00
2022-12-23T01:41:51.910Z,100.00
2022-12-23T01:44:53.699Z,100.00
2022-12-23T01:47:24.896Z,100.00
2022-12-23T01:49:57.314Z,100.00
2022-12-23T01:52:24.064Z,100.00
2022-12-23T01:54:51.039Z,100.00
2022-12-23T01:57:17.461Z,100.00
2022-12-23T02:00:03.533Z,100.00
2022-12-23T02:02:50.277Z,100.00
2022-12-23T02:05:17.422Z,100.00
2022-12-23T02:08:03.096Z,100.00
2022-12-23T02:10:36.073Z,100.00
2022-12-23T02:14:00.235Z,100.00
2022-12-23T02:16:33.793Z,100.00
2022-12-23T02:19:10.107Z,100.00
2022-12-23T02:22:00.664Z,100.00
2022-12-23T02:25:13.283Z,100.00
2022-12-23T02:28:08.819Z,100.00
2022-12-23T02:30:53.063Z,100.00
2022-12-23T02:33:31.606Z,100.00
2022-12-23T02:36:16.293Z,100.00
2022-12-23T02:38:53.464Z,100.00
2022-12-23T02:41:28.383Z,100.00
2022-12-23T02:44:10.147Z,100.00
2022-12-23T02:46:46.171Z,100.00
2022-12-23T02:49:19.485Z,100.00
2022-12-23T02:51:53.084Z,100.00
2022-12-23T02:54:29.227Z,100.00
2022-12-23T02:56:57.721Z,100.00
2022-12-23T02:59:32.986Z,100.00
2022-12-23T03:02:01.003Z,100.00
2022-12-23T03:04:27.473Z,100.00
2022-12-23T03:06:55.586Z,100.00
2022-12-23T03:09:34.636Z,100.00
2022-12-23T03:12:16.232Z,100.00
2022-12-23T03:15:01.429Z,100.00
2022-12-23T03:17:41.746Z,100.00
2022-12-23T03:20:17.628Z,100.00
2022-12-23T03:22:57.338Z,100.00
2022-12-23T03:25:33.805Z,100.00
2022-12-23T03:28:39.792Z,100.00
2022-12-23T03:31:09.598Z,100.00
2022-12-23T03:33:40.821Z,100.00
2022-12-23T03:36:16.615Z,100.00
2022-12-23T03:38:44.894Z,100.00
2022-12-23T03:41:18.115Z,100.00
2022-12-23T03:43:51.153Z,100.00
2022-12-23T03:46:26.573Z,100.00
2022-12-23T03:48:58.615Z,100.00
2022-12-23T03:51:34.584Z,100.00
2022-12-23T03:54:05.205Z,100.00
2022-12-23T03:56:36.438Z,100.00
2022-12-23T03:59:19.441Z,100.00
2022-12-23T04:02:00.119Z,100.00
2022-12-23T04:04:57.371Z,100.00
2022-12-23T04:07:30.302Z,100.00
2022-12-23T04:09:58.225Z,100.00
2022-12-23T04:12:26.688Z,100.00
2022-12-23T04:14:53.289Z,100.00
2022-12-23T04:17:20.025Z,100.00
2022-12-23T04:19:47.193Z,100.00
2022-12-23T04:22:15.606Z,100.00
2022-12-23T04:24:42.399Z,100.00
2022-12-23T04:27:12.332Z,100.00
2022-12-23T04:29:38.722Z,100.00
2022-12-23T04:32:05.528Z,100.00
2022-12-23T04:34:31.940Z,100.00
2022-12-23T04:36:58.380Z,100.00
2022-12-23T04:39:24.983Z,100.00
2022-12-23T04:41:51.444Z,100.00
2022-12-23T04:44:17.871Z,100.00
2022-12-23T04:46:44.288Z,100.00
2022-12-23T04:49:10.820Z,100.00
2022-12-23T04:51:37.245Z,100.00
2022-12-23T04:54:03.790Z,100.00
2022-12-23T04:56:30.199Z,100.00
2022-12-23T04:58:56.568Z,100.00
2022-12-23T05:01:23.020Z,100.00
2022-12-23T05:03:49.505Z,100.00
2022-12-23T05:06:15.974Z,100.00
2022-12-23T05:08:42.389Z,100.00
2022-12-23T05:11:08.772Z,100.00
2022-12-23T05:13:35.169Z,100.00
2022-12-23T05:16:01.629Z,100.00
2022-12-23T05:18:28.197Z,100.00
2022-12-23T05:20:55.419Z,100.00
2022-12-23T05:23:21.852Z,100.00
2022-12-23T05:25:53.248Z,100.00
2022-12-23T05:28:21.452Z,100.00
2022-12-23T05:30:48.292Z,100.00
2022-12-23T05:33:15.364Z,100.00
2022-12-23T05:35:41.773Z,100.00
2022-12-23T05:38:08.893Z,100.00
2022-12-23T05:40:35.608Z,100.00
2022-12-23T05:43:02.386Z,100.00
2022-12-23T05:45:28.916Z,100.00
2022-12-23T05:47:55.384Z,100.00
2022-12-23T05:50:21.773Z,100.00
2022-12-23T05:52:48.223Z,100.00
2022-12-23T05:55:14.591Z,100.00
2022-12-23T05:57:41.180Z,100.00
2022-12-23T06:00:08.251Z,100.00
2022-12-23T06:02:34.899Z,100.00
2022-12-23T06:05:01.646Z,100.00
2022-12-23T06:07:28.186Z,100.00
2022-12-23T06:09:54.724Z,100.00
2022-12-23T06:12:21.100Z,100.00
2022-12-23T06:14:47.504Z,100.00
2022-12-23T06:17:14.217Z,100.00
2022-12-23T06:19:40.651Z,100.00
2022-12-23T06:22:07.051Z,100.00
2022-12-23T06:24:33.591Z,100.00
2022-12-23T06:27:00.039Z,100.00
2022-12-23T06:29:26.446Z,100.00
2022-12-23T06:31:53.237Z,100.00
2022-12-23T06:34:19.813Z,100.00
2022-12-23T06:36:46.330Z,100.00
2022-12-23T06:39:12.836Z,100.00
2022-12-23T06:41:39.390Z,100.00
2022-12-23T06:44:05.933Z,100.00
2022-12-23T06:46:32.603Z,100.00
2022-12-23T06:48:59.229Z,100.00
2022-12-23T06:51:25.663Z,100.00
2022-12-23T06:53:52.129Z,100.00
2022-12-23T06:56:18.773Z,100.00
2022-12-23T06:58:45.271Z,100.00
2022-12-23T07:01:11.874Z,100.00
2022-12-23T07:03:38.357Z,100.00
2022-12-23T07:06:05.100Z,100.00
2022-12-23T07:08:31.487Z,100.00
2022-12-23T07:11:03.401Z,100.00
2022-12-23T07:13:31.393Z,100.00
2022-12-23T07:15:58.130Z,100.00
2022-12-23T07:18:25.495Z,100.00
2022-12-23T07:20:52.633Z,100.00
2022-12-23T07:23:19.052Z,100.00
2022-12-23T07:25:45.556Z,100.00
2022-12-23T07:28:11.958Z,100.00
2022-12-23T07:30:38.419Z,100.00
2022-12-23T07:33:04.815Z,100.00
2022-12-23T07:35:31.373Z,100.00
2022-12-23T07:37:57.961Z,100.00
2022-12-23T07:40:26.807Z,100.00
2022-12-23T07:42:59.712Z,100.00
2022-12-23T07:45:28.332Z,100.00
2022-12-23T07:47:57.092Z,100.00
2022-12-23T07:50:23.858Z,100.00
2022-12-23T07:52:51.086Z,100.00
2022-12-23T07:55:17.621Z,100.00
2022-12-23T07:57:48.377Z,100.00
2022-12-23T08:00:14.836Z,100.00
2022-12-23T08:02:41.814Z,100.00
2022-12-23T08:05:09.120Z,100.00
2022-12-23T08:07:36.387Z,100.00
2022-12-23T08:10:03.896Z,100.00
2022-12-23T08:12:30.381Z,100.00
2022-12-23T08:14:56.803Z,100.00
2022-12-23T08:17:27.328Z,100.00
2022-12-23T08:19:53.774Z,100.00
2022-12-23T08:22:20.189Z,100.00
2022-12-23T08:24:46.724Z,100.00
2022-12-23T08:27:13.531Z,100.00
2022-12-23T08:29:40.527Z,100.00
2022-12-23T08:32:07.229Z,100.00
2022-12-23T08:34:34.291Z,100.00
2022-12-23T08:37:01.447Z,100.00
2022-12-23T08:39:28.045Z,100.00
2022-12-23T08:41:54.626Z,100.00
2022-12-23T08:44:21.616Z,100.00
2022-12-23T08:46:48.282Z,100.00
2022-12-23T08:49:14.924Z,100.00
2022-12-23T08:51:41.413Z,100.00
2022-12-23T08:54:07.934Z,100.00
2022-12-23T08:56:39.310Z,100.00
2022-12-23T08:59:05.876Z,100.00
2022-12-23T09:01:34.487Z,100.00
2022-12-23T09:04:06.065Z,100.00
2022-12-23T09:06:36.573Z,100.00
2022-12-23T09:09:03.935Z,100.00
2022-12-23T09:11:30.722Z,100.00
2022-12-23T09:13:59.223Z,100.00
2022-12-23T09:16:26.202Z,100.00
2022-12-23T09:18:52.689Z,100.00
2022-12-23T09:21:21.734Z,100.00
2022-12-23T09:23:48.962Z,100.00
2022-12-23T09:26:24.583Z,100.00
2022-12-23T09:28:51.687Z,100.00
2022-12-23T09:31:18.805Z,100.00
2022-12-23T09:33:51.241Z,100.00
2022-12-23T09:36:17.890Z,100.00
2022-12-23T09:38:44.973Z,100.00
2022-12-23T09:41:48.697Z,100.00
2022-12-23T09:44:33.308Z,100.00
2022-12-23T09:47:05.922Z,100.00
2022-12-23T09:49:33.620Z,100.00
2022-12-23T09:52:03.640Z,100.00
2022-12-23T09:54:40.828Z,100.00
2022-12-23T09:57:33.812Z,100.00
2022-12-23T10:00:03.309Z,100.00
2022-12-23T10:03:07.129Z,100.00
2022-12-23T10:06:11.512Z,100.00
2022-12-23T10:08:42.092Z,100.00
2022-12-23T10:11:16.809Z,100.00
2022-12-23T10:13:53.982Z,100.00
2022-12-23T10:16:27.934Z,100.00
2022-12-23T10:19:03.523Z,100.00
2022-12-23T10:21:35.014Z,100.00
2022-12-23T10:24:11.123Z,100.00
2022-12-23T10:26:52.699Z,100.00
2022-12-23T10:29:24.732Z,100.00
2022-12-23T10:32:15.400Z,100.00
2022-12-23T10:35:04.898Z,100.00
2022-12-23T10:37:39.971Z,100.00
2022-12-23T10:40:33.005Z,100.00
2022-12-23T10:43:20.783Z,100.00
2022-12-23T10:46:20.752Z,100.00
2022-12-23T10:49:21.213Z,100.00
2022-12-23T10:52:00.091Z,100.00
2022-12-23T10:54:32.029Z,100.00
2022-12-23T10:56:58.711Z,100.00
2022-12-23T10:59:32.102Z,100.00
2022-12-23T11:02:12.329Z,100.00
2022-12-23T11:04:44.317Z,100.00
2022-12-23T11:10:06.110Z,100.00
2022-12-23T11:12:42.489Z,100.00
2022-12-23T11:15:27.855Z,100.00
2022-12-23T11:18:16.235Z,100.00
2022-12-23T11:20:45.699Z,100.00
2022-12-23T11:23:29.374Z,100.00
2022-12-23T11:26:08.598Z,100.00
2022-12-23T11:28:38.168Z,100.00
2022-12-23T11:31:14.236Z,100.00
2022-12-23T11:33:58.432Z,100.00
2022-12-23T11:36:27.753Z,100.00
2022-12-23T11:39:21.967Z,100.00
2022-12-23T11:41:52.387Z,100.00
2022-12-23T11:44:38.157Z,100.00
2022-12-23T11:47:22.798Z,100.00
2022-12-23T11:49:57.851Z,100.00
2022-12-23T11:52:30.227Z,100.00
2022-12-23T11:54:59.386Z,100.00
2022-12-23T11:57:48.258Z,100.00
2022-12-23T12:00:25.150Z,100.00
2022-12-23T12:02:58.699Z,100.00
2022-12-23T12:05:31.154Z,100.00
2022-12-23T12:08:05.724Z,100.00
2022-12-23T12:10:35.243Z,100.00
2022-12-23T12:13:05.621Z,100.00
2022-12-23T12:15:50.785Z,100.00
2022-12-23T12:18:19.500Z,100.00
2022-12-23T12:20:50.655Z,100.00
2022-12-23T12:23:25.400Z,100.00
2022-12-23T12:25:59.472Z,100.00
2022-12-23T12:28:32.797Z,100.00
2022-12-23T12:31:11.896Z,100.00
2022-12-23T12:33:48.311Z,100.00
2022-12-23T12:36:32.950Z,100.00
2022-12-23T12:39:00.474Z,100.00
2022-12-23T12:41:38.003Z,100.00
2022-12-23T12:44:28.817Z,100.00
2022-12-23T12:47:28.161Z,100.00
2022-12-23T12:49:59.073Z,100.00
2022-12-23T12:52:27.671Z,100.00
2022-12-23T12:55:26.640Z,100.00
2022-12-23T12:57:53.159Z,100.00
2022-12-23T13:00:22.297Z,100.00
2022-12-23T13:03:21.771Z,100.00
2022-12-23T13:05:59.837Z,100.00
2022-12-23T13:08:40.232Z,100.00
2022-12-23T13:11:20.123Z,100.00
2022-12-23T13:14:03.432Z,100.00
2022-12-23T13:16:41.851Z,100.00
2022-12-23T13:19:42.022Z,100.00
2022-12-23T13:22:16.245Z,100.00
2022-12-23T13:24:48.395Z,100.00
2022-12-23T13:27:20.060Z,100.00
2022-12-23T13:30:19.118Z,100.00
2022-12-23T13:32:57.566Z,100.00
2022-12-23T13:35:33.565Z,100.00
2022-12-23T13:38:09.462Z,100.00
2022-12-23T13:40:45.501Z,100.00
2022-12-23T13:43:19.829Z,100.00
2022-12-23T13:45:49.279Z,100.00
2022-12-23T13:49:03.987Z,100.00
2022-12-23T13:51:45.341Z,100.00
2022-12-23T13:54:20.779Z,100.00
2022-12-23T13:57:08.299Z,100.00
2022-12-23T13:59:44.170Z,100.00
2022-12-23T14:02:40.517Z,100.00
2022-12-23T14:05:29.390Z,100.00
2022-12-23T14:08:01.394Z,100.00
2022-12-23T14:10:28.484Z,100.00
2022-12-23T14:13:01.611Z,100.00
2022-12-23T14:15:43.018Z,100.00
2022-12-23T14:18:40.263Z,100.00
2022-12-23T14:21:38.732Z,100.00
2022-12-23T14:24:36.751Z,100.00
2022-12-23T14:27:35.249Z,100.00
2022-12-23T14:30:41.202Z,100.00
2022-12-23T14:33:26.226Z,100.00
2022-12-23T14:36:13.190Z,100.00
2022-12-23T14:38:39.799Z,100.00
2022-12-23T14:41:20.340Z,100.00
2022-12-23T14:43:46.689Z,100.00
2022-12-23T14:46:37.094Z,100.00
2022-12-23T14:49:36.967Z,100.00
2022-12-23T14:51:50.923Z,100.00
2022-12-23T14:54:18.515Z,100.00
2022-12-23T14:57:05.313Z,100.00
2022-12-23T14:59:46.665Z,100.00
2022-12-23T15:02:26.548Z,100.00
2022-12-23T15:04:55.342Z,100.00
2022-12-23T15:07:31.009Z,100.00
2022-12-23T15:10:03.725Z,100.00
2022-12-23T15:12:37.214Z,100.00
2022-12-23T15:15:07.579Z,100.00
2022-12-23T15:17:36.306Z,100.00
2022-12-23T15:20:22.805Z,100.00
2022-12-23T15:22:49.727Z,100.00
2022-12-23T15:25:29.035Z,100.00
2022-12-23T15:28:01.524Z,100.00
2022-12-23T15:30:33.835Z,100.00
2022-12-23T15:33:04.233Z,100.00
2022-12-23T15:35:44.602Z,100.00
2022-12-23T15:38:14.522Z,100.00
2022-12-23T15:40:41.059Z,100.00
2022-12-23T15:43:20.026Z,100.00
2022-12-23T15:45:46.409Z,100.00
2022-12-23T15:48:31.602Z,100.00
2022-12-23T15:51:25.744Z,100.00
2022-12-23T15:54:04.730Z,100.00
2022-12-23T15:56:35.136Z,100.00
2022-12-23T15:59:03.171Z,100.00
2022-12-23T16:01:38.921Z,100.00
2022-12-23T16:06:56.309Z,100.00
2022-12-23T16:09:30.758Z,100.00
2022-12-23T16:12:01.580Z,100.00
2022-12-23T16:14:31.061Z,100.00
2022-12-23T16:17:09.998Z,100.00
2022-12-23T16:19:40.721Z,100.00
2022-12-23T16:22:32.171Z,100.00
2022-12-23T16:25:31.535Z,100.00
2022-12-23T16:28:03.615Z,100.00
2022-12-23T16:30:38.007Z,100.00
2022-12-23T16:33:21.437Z,100.00
2022-12-23T16:35:48.001Z,100.00
2022-12-23T16:38:18.976Z,100.00
2022-12-23T16:40:48.471Z,100.00
2022-12-23T16:43:15.386Z,100.00
2022-12-23T16:45:44.088Z,100.00
2022-12-23T16:48:19.331Z,100.00
2022-12-23T16:50:46.802Z,100.00
2022-12-23T16:53:14.004Z,100.00
2022-12-23T16:55:46.239Z,100.00
2022-12-23T16:58:16.806Z,100.00
2022-12-23T17:00:43.453Z,100.00
2022-12-23T17:03:16.100Z,100.00
2022-12-23T17:05:42.857Z,100.00
2022-12-23T17:08:09.745Z,100.00
2022-12-23T17:10:38.092Z,100.00
2022-12-23T17:13:04.811Z,100.00
2022-12-23T17:15:31.445Z,100.00
2022-12-23T17:17:58.069Z,100.00
2022-12-23T17:20:24.559Z,100.00
2022-12-23T17:22:57.736Z,100.00
2022-12-23T17:25:26.764Z,100.00
2022-12-23T17:27:55.382Z,100.00
2022-12-23T17:30:23.818Z,100.00
2022-12-23T17:32:58.141Z,100.00
2022-12-23T17:35:25.907Z,100.00
2022-12-23T17:37:53.045Z,100.00
2022-12-23T17:40:19.827Z,100.00
2022-12-23T17:42:47.709Z,100.00
2022-12-23T17:45:29.909Z,100.00
2022-12-23T17:47:56.422Z,100.00
2022-12-23T17:50:23.838Z,100.00
2022-12-23T17:52:52.151Z,100.00
2022-12-23T17:55:24.031Z,100.00
2022-12-23T17:57:51.720Z,100.00
2022-12-23T18:00:29.772Z,100.00
2022-12-23T18:03:00.177Z,100.00
2022-12-23T18:05:31.823Z,100.00
2022-12-23T18:08:00.269Z,100.00
2022-12-23T18:10:39.006Z,100.00
2022-12-23T18:13:07.836Z,100.00
2022-12-23T18:15:41.750Z,100.00
2022-12-23T18:18:23.890Z,100.00
2022-12-23T18:20:54.829Z,100.00
2022-12-23T18:23:24.701Z,100.00
2022-12-23T18:25:51.301Z,100.00
2022-12-23T18:28:17.792Z,100.00
2022-12-23T18:30:44.509Z,100.00
2022-12-23T18:33:12.755Z,100.00
2022-12-23T18:35:43.938Z,100.00
2022-12-23T18:38:11.370Z,100.00
2022-12-23T18:40:38.987Z,100.00
2022-12-23T18:43:05.453Z,100.00
2022-12-23T18:45:37.331Z,100.00
2022-12-23T18:48:06.952Z,100.00
2022-12-23T18:50:34.804Z,100.00
2022-12-23T18:53:02.017Z,100.00
2022-12-23T18:55:30.294Z,100.00
2022-12-23T18:57:58.303Z,100.00
2022-12-23T19:00:27.483Z,100.00
2022-12-23T19:02:54.866Z,100.00
2022-12-23T19:05:25.163Z,100.00
2022-12-23T19:07:55.350Z,100.00
2022-12-23T19:10:25.258Z,100.00
2022-12-23T19:12:52.652Z,100.00
2022-12-23T19:15:20.413Z,100.00
2022-12-23T19:17:47.471Z,100.00
2022-12-23T19:20:15.720Z,100.00
2022-12-23T19:22:42.309Z,100.00
2022-12-23T19:25:12.139Z,100.00
2022-12-23T19:27:40.068Z,100.00
2022-12-23T19:30:08.735Z,100.00
2022-12-23T19:32:35.180Z,100.00
2022-12-23T19:35:02.062Z,100.00
2022-12-23T19:37:28.524Z,100.00
2022-12-23T19:39:55.257Z,100.00
2022-12-23T19:42:21.654Z,100.00
2022-12-23T19:44:48.063Z,100.00
2022-12-23T19:47:14.435Z,100.00
2022-12-23T19:49:40.857Z,100.00
2022-12-23T19:52:07.291Z,100.00
2022-12-23T19:54:33.708Z,100.00
2022-12-23T19:57:00.111Z,100.00
2022-12-23T19:59:26.672Z,100.00
2022-12-23T20:01:53.208Z,100.00
2022-12-23T20:04:19.723Z,100.00
2022-12-23T20:06:46.136Z,100.00
2022-12-23T20:09:13.477Z,100.00
2022-12-23T20:11:42.983Z,100.00
2022-12-23T20:14:10.578Z,100.00
2022-12-23T20:16:38.480Z,100.00
2022-12-23T20:19:06.026Z,100.00
2022-12-23T20:21:33.883Z,100.00
2022-12-23T20:24:00.651Z,100.00
2022-12-23T20:26:28.900Z,100.00
2022-12-23T20:28:56.772Z,100.00
2022-12-23T20:31:25.428Z,100.00
2022-12-23T20:33:52.774Z,100.00
2022-12-23T20:36:22.482Z,100.00
2022-12-23T20:38:50.618Z,100.00
2022-12-23T20:41:20.737Z,100.00
2022-12-23T20:44:02.775Z,100.00
2022-12-23T20:46:34.321Z,100.00
2022-12-23T20:49:00.885Z,100.00
2022-12-23T20:51:27.520Z,100.00
2022-12-23T20:53:56.019Z,100.00
2022-12-23T20:56:27.607Z,100.00
2022-12-23T20:58:54.949Z,100.00
2022-12-23T21:01:29.012Z,100.00
2022-12-23T21:03:57.841Z,100.00
2022-12-23T21:06:24.955Z,100.00
2022-12-23T21:08:52.267Z,100.00
2022-12-23T21:11:19.174Z,100.00
2022-12-23T21:13:49.593Z,100.00
2022-12-23T21:16:16.906Z,100.00
2022-12-23T21:18:45.725Z,100.00
2022-12-23T21:21:12.474Z,100.00
2022-12-23T21:23:41.301Z,100.00
2022-12-23T21:26:11.124Z,100.00
2022-12-23T21:28:38.857Z,100.00
2022-12-23T21:31:06.665Z,100.00
2022-12-23T21:33:40.806Z,100.00
2022-12-23T21:36:08.251Z,100.00
2022-12-23T21:38:37.554Z,100.00
2022-12-23T21:41:06.575Z,100.00
2022-12-23T21:43:33.155Z,100.00
2022-12-23T21:46:01.670Z,100.00
2022-12-23T21:48:30.643Z,100.00
2022-12-23T21:51:22.680Z,100.00
2022-12-23T21:53:51.493Z,100.00
2022-12-23T21:56:21.176Z,100.00
2022-12-23T21:58:47.784Z,100.00
2022-12-23T22:01:19.413Z,100.00
2022-12-23T22:03:47.853Z,97.90
2022-12-23T22:06:20.411Z,98.38
2022-12-23T22:08:47.679Z,97.81
2022-12-23T22:11:16.743Z,97.81
2022-12-23T22:13:43.792Z,96.14
2022-12-23T22:16:12.120Z,95.97
2022-12-23T22:18:39.102Z,95.22
2022-12-23T22:21:06.524Z,95.20
2022-12-23T22:23:33.088Z,95.86
2022-12-23T22:25:59.685Z,96.93
2022-12-23T22:28:26.087Z,97.37
2022-12-23T22:30:52.487Z,96.24
2022-12-23T22:33:19.027Z,95.76
2022-12-23T22:35:54.475Z,94.23
2022-12-23T22:38:21.040Z,95.54
2022-12-23T22:40:51.805Z,94.76
2022-12-23T22:43:18.812Z,96.52
2022-12-23T22:45:46.064Z,96.14
2022-12-23T22:48:12.909Z,94.80
2022-12-23T22:50:39.382Z,94.46
2022-12-23T22:53:05.827Z,94.78
2022-12-23T22:55:32.225Z,96.18
2022-12-23T22:57:58.614Z,96.37
2022-12-23T23:00:25.060Z,96.93
2022-12-23T23:02:51.439Z,96.87
2022-12-23T23:05:17.923Z,96.78
2022-12-23T23:07:44.356Z,98.29
2022-12-23T23:10:11.994Z,97.36
2022-12-23T23:12:38.592Z,98.13
2022-12-23T23:15:05.394Z,97.75
2022-12-23T23:17:31.798Z,98.38
2022-12-23T23:19:58.295Z,97.45
2022-12-23T23:22:25.305Z,96.87
2022-12-23T23:24:52.337Z,95.48
2022-12-23T23:27:19.071Z,96.54
2022-12-23T23:29:45.576Z,95.86
2022-12-23T23:32:12.311Z,96.17
2022-12-23T23:34:38.770Z,98.24
2022-12-23T23:37:05.273Z,99.52
2022-12-23T23:39:31.790Z,99.96
2022-12-23T23:41:58.352Z,99.60
2022-12-23T23:44:24.810Z,100.00
2022-12-23T23:46:51.191Z,100.00
2022-12-23T23:49:17.649Z,100.00
2022-12-23T23:51:44.223Z,100.00
2022-12-23T23:54:10.709Z,100.00
2022-12-23T23:56:39.065Z,99.87
2022-12-23T23:59:06.624Z,100.00
